sensor_id;sensor_type;location;lat;lon;timestamp;pressure;altitude;pressure_sealevel;temperature;humidity
22018;BME280;11173;51.050;7.108;2022-07-29T00:01:25;99446.22;;;18.06;43.62
22018;BME280;11173;51.050;7.108;2022-07-29T00:06:26;99442.34;;;18.04;43.73
22018;BME280;11173;51.050;7.108;2022-07-29T00:11:26;99442.22;;;17.98;43.81
22018;BME280;11173;51.050;7.108;2022-07-29T00:16:27;99433.44;;;17.96;43.70
22018;BME280;11173;51.050;7.108;2022-07-29T00:21:27;99431.91;;;17.95;43.75
22018;BME280;11173;51.050;7.108;2022-07-29T00:26:27;99410.84;;;17.81;43.71
22018;BME280;11173;51.050;7.108;2022-07-29T00:31:31;99423.44;;;17.95;43.60
22018;BME280;11173;51.050;7.108;2022-07-29T00:36:32;99410.91;;;17.96;43.36
22018;BME280;11173;51.050;7.108;2022-07-29T00:41:32;99401.53;;;17.90;43.29
22018;BME280;11173;51.050;7.108;2022-07-29T00:46:32;99395.56;;;17.97;43.34
22018;BME280;11173;51.050;7.108;2022-07-29T00:51:35;99387.28;;;17.94;43.57
22018;BME280;11173;51.050;7.108;2022-07-29T00:56:36;99395.88;;;17.99;43.49
22018;BME280;11173;51.050;7.108;2022-07-29T01:01:37;99386.44;;;18.02;43.51
22018;BME280;11173;51.050;7.108;2022-07-29T01:06:37;99371.28;;;18.00;43.45
22018;BME280;11173;51.050;7.108;2022-07-29T01:11:38;99376.78;;;17.94;44.00
22018;BME280;11173;51.050;7.108;2022-07-29T01:16:48;99373.38;;;17.90;43.94
22018;BME280;11173;51.050;7.108;2022-07-29T01:21:54;99372.59;;;17.89;43.88
22018;BME280;11173;51.050;7.108;2022-07-29T01:32:26;99375.59;;;17.86;43.60
22018;BME280;11173;51.050;7.108;2022-07-29T01:37:34;99364.47;;;17.82;43.92
22018;BME280;11173;51.050;7.108;2022-07-29T01:42:43;99357.94;;;17.76;44.04
22018;BME280;11173;51.050;7.108;2022-07-29T01:53:00;99346.31;;;17.59;44.83
22018;BME280;11173;51.050;7.108;2022-07-29T01:58:03;99343.16;;;17.57;44.63
22018;BME280;11173;51.050;7.108;2022-07-29T02:03:09;99336.41;;;17.55;44.32
22018;BME280;11173;51.050;7.108;2022-07-29T02:08:11;99331.28;;;17.53;43.93
22018;BME280;11173;51.050;7.108;2022-07-29T02:13:14;99324.44;;;17.45;44.18
22018;BME280;11173;51.050;7.108;2022-07-29T02:18:17;99322.88;;;17.44;44.31
22018;BME280;11173;51.050;7.108;2022-07-29T02:23:20;99342.56;;;17.53;43.89
22018;BME280;11173;51.050;7.108;2022-07-29T02:28:23;99332.41;;;17.46;44.07
22018;BME280;11173;51.050;7.108;2022-07-29T02:33:25;99337.22;;;17.55;43.85
22018;BME280;11173;51.050;7.108;2022-07-29T02:38:27;99345.34;;;17.62;43.16
22018;BME280;11173;51.050;7.108;2022-07-29T02:43:48;99340.47;;;17.63;42.76
22018;BME280;11173;51.050;7.108;2022-07-29T02:48:59;99335.94;;;17.56;43.03
22018;BME280;11173;51.050;7.108;2022-07-29T02:54:04;99341.34;;;17.45;43.32
22018;BME280;11173;51.050;7.108;2022-07-29T02:59:09;99331.94;;;17.39;43.37
22018;BME280;11173;51.050;7.108;2022-07-29T03:04:12;99329.50;;;17.32;43.13
22018;BME280;11173;51.050;7.108;2022-07-29T03:09:13;99331.22;;;17.29;43.41
22018;BME280;11173;51.050;7.108;2022-07-29T03:14:15;99330.94;;;17.27;43.08
22018;BME280;11173;51.050;7.108;2022-07-29T03:19:17;99358.25;;;17.36;42.59
22018;BME280;11173;51.050;7.108;2022-07-29T03:24:29;99374.78;;;17.43;43.37
22018;BME280;11173;51.050;7.108;2022-07-29T03:29:31;99384.34;;;17.45;43.59
22018;BME280;11173;51.050;7.108;2022-07-29T03:34:32;99388.88;;;17.43;43.16
22018;BME280;11173;51.050;7.108;2022-07-29T03:39:36;99394.50;;;17.43;43.66
22018;BME280;11173;51.050;7.108;2022-07-29T03:44:40;99402.03;;;17.37;43.74
22018;BME280;11173;51.050;7.108;2022-07-29T03:49:42;99387.41;;;17.23;43.80
22018;BME280;11173;51.050;7.108;2022-07-29T03:54:44;99381.47;;;17.12;43.49
22018;BME280;11173;51.050;7.108;2022-07-29T03:59:45;99393.03;;;17.05;44.02
22018;BME280;11173;51.050;7.108;2022-07-29T04:04:46;99389.63;;;16.92;44.94
22018;BME280;11173;51.050;7.108;2022-07-29T04:09:46;99383.56;;;16.84;44.70
22018;BME280;11173;51.050;7.108;2022-07-29T04:14:47;99384.03;;;16.73;45.73
22018;BME280;11173;51.050;7.108;2022-07-29T04:19:48;99396.34;;;16.66;45.75
22018;BME280;11173;51.050;7.108;2022-07-29T04:24:49;99406.03;;;16.65;45.50
22018;BME280;11173;51.050;7.108;2022-07-29T04:29:49;99398.53;;;16.62;45.88
22018;BME280;11173;51.050;7.108;2022-07-29T04:34:50;99397.75;;;16.53;45.70
22018;BME280;11173;51.050;7.108;2022-07-29T04:39:50;99405.41;;;16.52;46.16
22018;BME280;11173;51.050;7.108;2022-07-29T04:44:50;99385.25;;;16.44;46.76
22018;BME280;11173;51.050;7.108;2022-07-29T04:49:51;99393.38;;;16.42;47.40
22018;BME280;11173;51.050;7.108;2022-07-29T04:54:51;99385.56;;;16.46;46.75
22018;BME280;11173;51.050;7.108;2022-07-29T04:59:51;99381.97;;;16.46;46.68
22018;BME280;11173;51.050;7.108;2022-07-29T05:04:52;99385.25;;;16.44;47.69
22018;BME280;11173;51.050;7.108;2022-07-29T05:09:52;99384.47;;;16.44;47.11
22018;BME280;11173;51.050;7.108;2022-07-29T05:14:53;99395.25;;;16.45;47.64
22018;BME280;11173;51.050;7.108;2022-07-29T05:19:54;99403.69;;;16.45;48.13
22018;BME280;11173;51.050;7.108;2022-07-29T05:24:54;99420.09;;;16.56;47.01
22018;BME280;11173;51.050;7.108;2022-07-29T05:29:55;99416.81;;;16.58;47.67
22018;BME280;11173;51.050;7.108;2022-07-29T05:34:56;99418.06;;;16.66;46.90
22018;BME280;11173;51.050;7.108;2022-07-29T05:39:56;99423.41;;;16.73;47.28
22018;BME280;11173;51.050;7.108;2022-07-29T05:44:57;99426.97;;;16.83;47.56
22018;BME280;11173;51.050;7.108;2022-07-29T05:49:57;99428.56;;;16.93;47.50
22018;BME280;11173;51.050;7.108;2022-07-29T05:54:58;99426.81;;;17.14;47.61
22018;BME280;11173;51.050;7.108;2022-07-29T05:59:58;99439.13;;;17.35;46.90
22018;BME280;11173;51.050;7.108;2022-07-29T06:04:58;99438.78;;;17.52;46.84
22018;BME280;11173;51.050;7.108;2022-07-29T06:09:59;99465.97;;;17.73;46.43
22018;BME280;11173;51.050;7.108;2022-07-29T06:14:59;99475.13;;;17.92;46.08
22018;BME280;11173;51.050;7.108;2022-07-29T06:19:59;99467.53;;;18.07;45.98
22018;BME280;11173;51.050;7.108;2022-07-29T06:25:01;99463.84;;;18.25;46.24
22018;BME280;11173;51.050;7.108;2022-07-29T06:30:02;99469.22;;;18.47;45.57
22018;BME280;11173;51.050;7.108;2022-07-29T06:35:03;99469.63;;;18.79;45.24
22018;BME280;11173;51.050;7.108;2022-07-29T06:40:04;99478.06;;;19.18;45.05
22018;BME280;11173;51.050;7.108;2022-07-29T06:45:23;99475.31;;;19.63;45.17
22018;BME280;11173;51.050;7.108;2022-07-29T06:50:24;99487.53;;;20.04;43.86
22018;BME280;11173;51.050;7.108;2022-07-29T06:55:24;99490.88;;;20.38;42.64
22018;BME280;11173;51.050;7.108;2022-07-29T07:00:25;99494.16;;;20.72;43.06
22018;BME280;11173;51.050;7.108;2022-07-29T07:05:25;99492.69;;;20.97;43.51
22018;BME280;11173;51.050;7.108;2022-07-29T07:10:25;99493.16;;;21.16;42.97
22018;BME280;11173;51.050;7.108;2022-07-29T07:15:27;99495.84;;;21.25;41.02
22018;BME280;11173;51.050;7.108;2022-07-29T07:20:27;99488.06;;;21.20;40.90
22018;BME280;11173;51.050;7.108;2022-07-29T07:25:28;99479.78;;;20.96;40.63
22018;BME280;11173;51.050;7.108;2022-07-29T07:30:28;99484.19;;;20.77;41.12
22018;BME280;11173;51.050;7.108;2022-07-29T07:35:29;99479.59;;;20.59;41.36
22018;BME280;11173;51.050;7.108;2022-07-29T07:40:29;99475.25;;;20.43;41.96
22018;BME280;11173;51.050;7.108;2022-07-29T07:45:30;99490.28;;;20.34;42.50
22018;BME280;11173;51.050;7.108;2022-07-29T07:50:32;99488.56;;;20.37;42.66
22018;BME280;11173;51.050;7.108;2022-07-29T07:55:33;99492.66;;;20.56;43.06
22018;BME280;11173;51.050;7.108;2022-07-29T08:00:33;99494.31;;;20.83;43.00
22018;BME280;11173;51.050;7.108;2022-07-29T08:05:33;99479.16;;;21.07;43.02
22018;BME280;11173;51.050;7.108;2022-07-29T08:10:34;99481.44;;;21.29;42.80
22018;BME280;11173;51.050;7.108;2022-07-29T08:15:52;99471.28;;;21.43;42.45
22018;BME280;11173;51.050;7.108;2022-07-29T08:21:00;99473.75;;;21.56;42.65
22018;BME280;11173;51.050;7.108;2022-07-29T08:26:00;99465.34;;;21.67;42.18
22018;BME280;11173;51.050;7.108;2022-07-29T08:31:01;99465.66;;;21.75;41.92
22018;BME280;11173;51.050;7.108;2022-07-29T08:36:01;99469.28;;;21.75;41.71
22018;BME280;11173;51.050;7.108;2022-07-29T08:41:02;99481.69;;;21.83;42.50
22018;BME280;11173;51.050;7.108;2022-07-29T08:46:03;99478.59;;;21.81;42.67
22018;BME280;11173;51.050;7.108;2022-07-29T08:51:04;99479.28;;;21.71;42.36
22018;BME280;11173;51.050;7.108;2022-07-29T08:56:06;99465.19;;;21.50;42.53
22018;BME280;11173;51.050;7.108;2022-07-29T09:01:07;99474.28;;;21.34;42.99
22018;BME280;11173;51.050;7.108;2022-07-29T09:06:09;99473.03;;;21.14;42.73
22018;BME280;11173;51.050;7.108;2022-07-29T09:11:13;99468.47;;;20.96;43.43
22018;BME280;11173;51.050;7.108;2022-07-29T09:16:13;99469.91;;;20.86;43.55
22018;BME280;11173;51.050;7.108;2022-07-29T09:21:16;99468.34;;;20.85;44.30
22018;BME280;11173;51.050;7.108;2022-07-29T09:26:39;99464.09;;;20.95;44.82
22018;BME280;11173;51.050;7.108;2022-07-29T09:31:45;99469.56;;;21.25;44.93
22018;BME280;11173;51.050;7.108;2022-07-29T09:36:48;99468.78;;;21.77;44.59
22018;BME280;11173;51.050;7.108;2022-07-29T09:41:51;99466.06;;;22.31;43.39
22018;BME280;11173;51.050;7.108;2022-07-29T09:46:59;99465.25;;;22.79;42.73
22018;BME280;11173;51.050;7.108;2022-07-29T09:52:09;99463.84;;;23.18;41.70
22018;BME280;11173;51.050;7.108;2022-07-29T09:57:30;99454.09;;;23.47;39.49
22018;BME280;11173;51.050;7.108;2022-07-29T10:02:32;99459.03;;;23.75;40.81
22018;BME280;11173;51.050;7.108;2022-07-29T10:07:50;99456.66;;;24.01;40.08
22018;BME280;11173;51.050;7.108;2022-07-29T10:12:57;99465.22;;;24.24;41.58
22018;BME280;11173;51.050;7.108;2022-07-29T10:17:58;99469.59;;;24.31;41.00
22018;BME280;11173;51.050;7.108;2022-07-29T10:22:59;99468.06;;;24.24;41.20
22018;BME280;11173;51.050;7.108;2022-07-29T10:27:59;99467.28;;;24.07;41.12
22018;BME280;11173;51.050;7.108;2022-07-29T10:43:46;99458.50;;;23.48;41.29
22018;BME280;11173;51.050;7.108;2022-07-29T10:49:12;99473.13;;;23.07;41.92
22018;BME280;11173;51.050;7.108;2022-07-29T10:54:14;99477.13;;;22.72;42.12
22018;BME280;11173;51.050;7.108;2022-07-29T11:09:43;99476.91;;;22.33;43.91
22018;BME280;11173;51.050;7.108;2022-07-29T11:19:51;99466.47;;;22.61;43.99
22018;BME280;11173;51.050;7.108;2022-07-29T11:25:16;99473.00;;;22.79;43.84
22018;BME280;11173;51.050;7.108;2022-07-29T11:30:16;99473.09;;;22.90;43.49
22018;BME280;11173;51.050;7.108;2022-07-29T11:35:20;99474.84;;;22.88;42.87
22018;BME280;11173;51.050;7.108;2022-07-29T11:40:21;99475.81;;;22.73;43.26
22018;BME280;11173;51.050;7.108;2022-07-29T11:45:23;99469.56;;;22.58;43.66
22018;BME280;11173;51.050;7.108;2022-07-29T11:50:35;99471.34;;;22.55;44.17
22018;BME280;11173;51.050;7.108;2022-07-29T11:55:37;99471.63;;;22.57;43.99
22018;BME280;11173;51.050;7.108;2022-07-29T12:00:40;99468.78;;;22.57;43.65
22018;BME280;11173;51.050;7.108;2022-07-29T12:05:43;99463.38;;;22.59;43.90
22018;BME280;11173;51.050;7.108;2022-07-29T12:10:49;99467.03;;;22.71;43.57
22018;BME280;11173;51.050;7.108;2022-07-29T12:15:55;99470.44;;;22.81;42.89
22018;BME280;11173;51.050;7.108;2022-07-29T12:21:01;99469.66;;;22.86;43.01
22018;BME280;11173;51.050;7.108;2022-07-29T12:26:05;99462.25;;;22.94;43.23
22018;BME280;11173;51.050;7.108;2022-07-29T12:31:12;99470.28;;;23.07;42.80
22018;BME280;11173;51.050;7.108;2022-07-29T12:36:13;99466.44;;;23.16;42.85
22018;BME280;11173;51.050;7.108;2022-07-29T12:41:13;99458.19;;;23.29;41.93
22018;BME280;11173;51.050;7.108;2022-07-29T12:46:14;99448.13;;;23.39;41.06
22018;BME280;11173;51.050;7.108;2022-07-29T12:51:14;99456.94;;;23.53;40.59
22018;BME280;11173;51.050;7.108;2022-07-29T12:56:16;99457.75;;;23.59;40.94
22018;BME280;11173;51.050;7.108;2022-07-29T13:01:18;99447.91;;;23.71;41.14
22018;BME280;11173;51.050;7.108;2022-07-29T13:11:45;99465.47;;;24.09;39.89
22018;BME280;11173;51.050;7.108;2022-07-29T13:17:08;99457.16;;;24.11;39.98
22018;BME280;11173;51.050;7.108;2022-07-29T13:22:11;99452.81;;;24.05;40.18
22018;BME280;11173;51.050;7.108;2022-07-29T13:27:11;99455.34;;;24.14;40.31
22018;BME280;11173;51.050;7.108;2022-07-29T13:32:13;99455.38;;;24.25;39.73
22018;BME280;11173;51.050;7.108;2022-07-29T13:37:14;99450.94;;;24.35;39.38
22018;BME280;11173;51.050;7.108;2022-07-29T13:42:14;99440.56;;;24.38;39.86
22018;BME280;11173;51.050;7.108;2022-07-29T13:47:15;99447.75;;;24.56;39.52
22018;BME280;11173;51.050;7.108;2022-07-29T13:52:16;99463.78;;;24.65;37.74
22018;BME280;11173;51.050;7.108;2022-07-29T13:57:17;99450.06;;;24.63;37.93
22018;BME280;11173;51.050;7.108;2022-07-29T14:02:17;99460.97;;;24.53;38.04
22018;BME280;11173;51.050;7.108;2022-07-29T14:07:18;99455.59;;;24.44;37.47
22018;BME280;11173;51.050;7.108;2022-07-29T14:12:18;99455.03;;;24.46;37.64
22018;BME280;11173;51.050;7.108;2022-07-29T14:17:19;99444.97;;;24.45;38.16
22018;BME280;11173;51.050;7.108;2022-07-29T14:22:19;99452.94;;;24.52;38.29
22018;BME280;11173;51.050;7.108;2022-07-29T14:27:20;99458.88;;;24.54;38.63
22018;BME280;11173;51.050;7.108;2022-07-29T14:32:20;99458.13;;;24.53;38.33
22018;BME280;11173;51.050;7.108;2022-07-29T14:37:20;99453.00;;;24.46;38.15
22018;BME280;11173;51.050;7.108;2022-07-29T14:42:21;99458.44;;;24.38;38.19
22018;BME280;11173;51.050;7.108;2022-07-29T14:47:21;99473.75;;;24.24;37.73
22018;BME280;11173;51.050;7.108;2022-07-29T14:52:22;99462.88;;;24.11;38.40
22018;BME280;11173;51.050;7.108;2022-07-29T14:57:23;99460.06;;;23.94;37.35
22018;BME280;11173;51.050;7.108;2022-07-29T15:02:23;99466.00;;;23.85;38.01
22018;BME280;11173;51.050;7.108;2022-07-29T15:07:23;99476.34;;;23.88;37.63
22018;BME280;11173;51.050;7.108;2022-07-29T15:12:24;99475.84;;;23.84;38.01
22018;BME280;11173;51.050;7.108;2022-07-29T15:17:25;99482.03;;;23.82;37.71
22018;BME280;11173;51.050;7.108;2022-07-29T15:22:25;99483.84;;;23.91;38.21
22018;BME280;11173;51.050;7.108;2022-07-29T15:27:25;99484.34;;;23.95;37.99
22018;BME280;11173;51.050;7.108;2022-07-29T15:32:26;99480.47;;;23.98;37.83
22018;BME280;11173;51.050;7.108;2022-07-29T15:37:26;99464.69;;;24.03;37.94
22018;BME280;11173;51.050;7.108;2022-07-29T15:42:28;99472.97;;;24.07;37.71
22018;BME280;11173;51.050;7.108;2022-07-29T15:47:29;99478.16;;;24.02;37.43
22018;BME280;11173;51.050;7.108;2022-07-29T15:52:29;99475.81;;;23.95;37.66
22018;BME280;11173;51.050;7.108;2022-07-29T15:57:29;99470.66;;;23.82;38.10
22018;BME280;11173;51.050;7.108;2022-07-29T16:02:30;99472.19;;;23.78;38.66
22018;BME280;11173;51.050;7.108;2022-07-29T16:07:30;99468.06;;;23.85;38.39
22018;BME280;11173;51.050;7.108;2022-07-29T16:12:31;99463.94;;;23.97;38.42
22018;BME280;11173;51.050;7.108;2022-07-29T16:17:31;99456.16;;;24.09;38.80
22018;BME280;11173;51.050;7.108;2022-07-29T16:22:31;99455.84;;;24.18;38.66
22018;BME280;11173;51.050;7.108;2022-07-29T16:27:32;99461.06;;;24.25;38.84
22018;BME280;11173;51.050;7.108;2022-07-29T16:32:32;99465.66;;;24.39;38.86
22018;BME280;11173;51.050;7.108;2022-07-29T16:37:32;99465.66;;;24.51;38.55
22018;BME280;11173;51.050;7.108;2022-07-29T16:42:35;99471.34;;;24.51;38.01
22018;BME280;11173;51.050;7.108;2022-07-29T16:47:36;99476.03;;;24.42;37.99
22018;BME280;11173;51.050;7.108;2022-07-29T16:52:39;99481.47;;;24.40;37.95
22018;BME280;11173;51.050;7.108;2022-07-29T16:57:39;99491.59;;;24.30;38.10
22018;BME280;11173;51.050;7.108;2022-07-29T17:02:41;99497.78;;;24.12;37.85
22018;BME280;11173;51.050;7.108;2022-07-29T17:07:42;99494.44;;;23.91;38.29
22018;BME280;11173;51.050;7.108;2022-07-29T17:12:43;99509.44;;;23.80;38.26
22018;BME280;11173;51.050;7.108;2022-07-29T17:17:46;99506.84;;;23.88;38.24
22018;BME280;11173;51.050;7.108;2022-07-29T17:22:47;99511.53;;;24.02;38.73
22018;BME280;11173;51.050;7.108;2022-07-29T17:27:48;99514.88;;;24.34;38.78
22018;BME280;11173;51.050;7.108;2022-07-29T17:32:49;99530.53;;;24.75;38.69
22018;BME280;11173;51.050;7.108;2022-07-29T17:37:51;99525.97;;;25.19;37.97
22018;BME280;11173;51.050;7.108;2022-07-29T17:42:54;99523.44;;;25.57;37.04
22018;BME280;11173;51.050;7.108;2022-07-29T17:47:54;99528.00;;;25.71;36.35
22018;BME280;11173;51.050;7.108;2022-07-29T17:52:54;99533.13;;;25.84;36.00
22018;BME280;11173;51.050;7.108;2022-07-29T17:57:55;99541.56;;;25.95;36.29
22018;BME280;11173;51.050;7.108;2022-07-29T18:02:55;99536.78;;;26.09;35.96
22018;BME280;11173;51.050;7.108;2022-07-29T18:07:55;99540.09;;;26.19;35.81
22018;BME280;11173;51.050;7.108;2022-07-29T18:12:56;99543.44;;;26.23;35.61
22018;BME280;11173;51.050;7.108;2022-07-29T18:17:56;99544.81;;;26.16;35.53
22018;BME280;11173;51.050;7.108;2022-07-29T18:22:57;99548.19;;;26.15;35.03
22018;BME280;11173;51.050;7.108;2022-07-29T18:27:57;99556.63;;;25.96;34.83
22018;BME280;11173;51.050;7.108;2022-07-29T18:32:58;99549.16;;;25.46;33.58
22018;BME280;11173;51.050;7.108;2022-07-29T18:37:59;99561.88;;;24.80;34.32
22018;BME280;11173;51.050;7.108;2022-07-29T18:42:59;99556.25;;;24.07;35.39
22018;BME280;11173;51.050;7.108;2022-07-29T18:48:00;99558.47;;;23.41;35.49
22018;BME280;11173;51.050;7.108;2022-07-29T18:53:01;99562.63;;;22.86;36.13
22018;BME280;11173;51.050;7.108;2022-07-29T18:58:03;99569.28;;;22.34;36.66
22018;BME280;11173;51.050;7.108;2022-07-29T19:03:03;99573.31;;;21.95;36.94
22018;BME280;11173;51.050;7.108;2022-07-29T19:08:04;99565.72;;;21.55;37.29
22018;BME280;11173;51.050;7.108;2022-07-29T19:13:05;99575.44;;;21.28;38.10
22018;BME280;11173;51.050;7.108;2022-07-29T19:18:05;99578.22;;;21.01;38.23
22018;BME280;11173;51.050;7.108;2022-07-29T19:23:06;99574.78;;;20.77;38.37
22018;BME280;11173;51.050;7.108;2022-07-29T19:28:08;99568.00;;;20.54;38.66
22018;BME280;11173;51.050;7.108;2022-07-29T19:33:08;99572.34;;;20.34;39.17
22018;BME280;11173;51.050;7.108;2022-07-29T19:38:09;99574.63;;;20.15;39.52
22018;BME280;11173;51.050;7.108;2022-07-29T19:43:09;99581.22;;;19.97;39.39
22018;BME280;11173;51.050;7.108;2022-07-29T19:48:10;99588.34;;;19.78;39.91
22018;BME280;11173;51.050;7.108;2022-07-29T19:53:10;99586.66;;;19.56;40.25
22018;BME280;11173;51.050;7.108;2022-07-29T19:58:11;99602.41;;;19.48;40.54
22018;BME280;11173;51.050;7.108;2022-07-29T20:03:12;99601.72;;;19.38;40.70
22018;BME280;11173;51.050;7.108;2022-07-29T20:08:12;99611.81;;;19.30;40.98
22018;BME280;11173;51.050;7.108;2022-07-29T20:13:12;99620.34;;;19.21;41.36
22018;BME280;11173;51.050;7.108;2022-07-29T20:18:13;99618.34;;;19.12;41.97
22018;BME280;11173;51.050;7.108;2022-07-29T20:23:15;99623.88;;;19.06;41.40
22018;BME280;11173;51.050;7.108;2022-07-29T20:28:17;99617.34;;;19.00;42.25
22018;BME280;11173;51.050;7.108;2022-07-29T20:33:17;99617.53;;;18.97;42.67
22018;BME280;11173;51.050;7.108;2022-07-29T20:38:18;99615.19;;;18.95;42.14
22018;BME280;11173;51.050;7.108;2022-07-29T20:43:18;99616.91;;;18.93;42.88
22018;BME280;11173;51.050;7.108;2022-07-29T20:48:18;99622.06;;;18.94;42.77
22018;BME280;11173;51.050;7.108;2022-07-29T20:53:19;99621.31;;;18.94;42.04
22018;BME280;11173;51.050;7.108;2022-07-29T20:58:19;99623.19;;;18.97;42.83
22018;BME280;11173;51.050;7.108;2022-07-29T21:03:20;99631.75;;;19.02;42.10
22018;BME280;11173;51.050;7.108;2022-07-29T21:08:20;99633.16;;;19.07;42.28
22018;BME280;11173;51.050;7.108;2022-07-29T21:13:21;99631.56;;;19.06;42.18
22018;BME280;11173;51.050;7.108;2022-07-29T21:18:22;99639.41;;;19.11;42.50
22018;BME280;11173;51.050;7.108;2022-07-29T21:23:26;99640.34;;;19.08;42.73
22018;BME280;11173;51.050;7.108;2022-07-29T21:28:26;99640.34;;;19.08;43.40
22018;BME280;11173;51.050;7.108;2022-07-29T21:33:29;99646.00;;;19.08;43.42
22018;BME280;11173;51.050;7.108;2022-07-29T21:38:30;99650.38;;;19.09;43.29
22018;BME280;11173;51.050;7.108;2022-07-29T21:43:31;99654.75;;;19.10;43.23
22018;BME280;11173;51.050;7.108;2022-07-29T21:48:31;99664.00;;;19.11;43.14
22018;BME280;11173;51.050;7.108;2022-07-29T21:53:32;99662.75;;;19.12;42.82
22018;BME280;11173;51.050;7.108;2022-07-29T21:58:32;99673.28;;;19.11;42.46
22018;BME280;11173;51.050;7.108;2022-07-29T22:03:32;99672.00;;;19.12;42.87
22018;BME280;11173;51.050;7.108;2022-07-29T22:08:33;99674.34;;;19.14;42.92
22018;BME280;11173;51.050;7.108;2022-07-29T22:13:34;99676.22;;;19.17;42.40
22018;BME280;11173;51.050;7.108;2022-07-29T22:18:34;99668.84;;;19.19;42.95
22018;BME280;11173;51.050;7.108;2022-07-29T22:23:35;99667.56;;;19.20;42.90
22018;BME280;11173;51.050;7.108;2022-07-29T22:28:35;99666.31;;;19.21;43.28
22018;BME280;11173;51.050;7.108;2022-07-29T22:33:35;99666.00;;;19.19;42.93
22018;BME280;11173;51.050;7.108;2022-07-29T22:38:36;99668.06;;;19.19;42.89
22018;BME280;11173;51.050;7.108;2022-07-29T22:43:39;99670.38;;;19.20;42.54
22018;BME280;11173;51.050;7.108;2022-07-29T22:48:40;99665.22;;;19.19;42.84
22018;BME280;11173;51.050;7.108;2022-07-29T22:53:40;99660.34;;;19.19;42.88
22018;BME280;11173;51.050;7.108;2022-07-29T22:58:41;99652.84;;;19.16;42.68
22018;BME280;11173;51.050;7.108;2022-07-29T23:03:41;99646.28;;;19.10;42.84
22018;BME280;11173;51.050;7.108;2022-07-29T23:08:42;99649.00;;;19.04;43.14
22018;BME280;11173;51.050;7.108;2022-07-29T23:13:42;99645.75;;;18.97;43.00
22018;BME280;11173;51.050;7.108;2022-07-29T23:18:43;99641.41;;;18.86;43.21
22018;BME280;11173;51.050;7.108;2022-07-29T23:23:43;99633.63;;;18.72;43.24
22018;BME280;11173;51.050;7.108;2022-07-29T23:28:44;99620.88;;;18.53;43.42
22018;BME280;11173;51.050;7.108;2022-07-29T23:33:45;99634.84;;;18.38;43.35
22018;BME280;11173;51.050;7.108;2022-07-29T23:38:46;99611.75;;;18.15;43.77
22018;BME280;11173;51.050;7.108;2022-07-29T23:43:47;99619.16;;;17.94;44.51
22018;BME280;11173;51.050;7.108;2022-07-29T23:48:48;99616.81;;;17.74;44.37
22018;BME280;11173;51.050;7.108;2022-07-29T23:53:48;99613.06;;;17.49;44.33
22018;BME280;11173;51.050;7.108;2022-07-29T23:58:49;99608.81;;;17.26;45.22
